Time;durP1;ratioP1;P1;durP2;ratioP2;P2;SDS_P1;SDS_P2;PMS_P1;PMS_P2;Temp;Humidity;BMP_temperature;BMP_pressure;BME280_temperature;BME280_humidity;BME280_pressure;Samples;Min_cycle;Max_cycle;Signal;HPM_P1;HPM_P2
2023/10/12 00:02:22;;;;;;;13.18;5.18;;;;;;;;;;6147568;23;20074;-45
2023/10/12 00:04:53;;;;;;;12.67;4.93;;;;;;;;;;6187296;23;20012;-41
2023/10/12 00:07:33;;;;;;;10.63;5.05;;;;;;;;;;6183778;23;20024;-41
2023/10/12 00:10:19;;;;;;;13.82;5.07;;;;;;;;;;6173758;23;20017;-41
2023/10/12 00:12:50;;;;;;;15.52;5.50;;;;;;;;;;6183908;23;20024;-41
2023/10/12 00:15:23;;;;;;;12.60;5.43;;;;;;;;;;6173797;23;20087;-41
2023/10/12 00:17:52;;;;;;;14.87;5.47;;;;;;;;;;6182983;23;20017;-41
2023/10/12 00:20:24;;;;;;;11.18;5.03;;;;;;;;;;6182903;23;20036;-45
2023/10/12 00:22:51;;;;;;;14.27;4.68;;;;;;;;;;6164403;23;20312;-42
2023/10/12 00:25:21;;;;;;;14.00;5.03;;;;;;;;;;6151897;23;20020;-41
2023/10/12 00:27:51;;;;;;;11.52;4.80;;;;;;;;;;6176576;23;20443;-41
2023/10/12 00:30:19;;;;;;;12.90;5.60;;;;;;;;;;6183328;23;20084;-42
2023/10/12 00:32:47;;;;;;;11.00;5.68;;;;;;;;;;6171937;23;20099;-43
2023/10/12 00:35:18;;;;;;;11.30;5.05;;;;;;;;;;6187197;23;20016;-41
2023/10/12 00:37:45;;;;;;;10.82;4.50;;;;;;;;;;6170624;23;20013;-41
2023/10/12 00:40:26;;;;;;;12.45;4.80;;;;;;;;;;6184865;23;20016;-42
2023/10/12 00:42:59;;;;;;;12.43;5.20;;;;;;;;;;6158980;23;20016;-41
2023/10/12 00:45:29;;;;;;;11.27;4.82;;;;;;;;;;6176853;23;20012;-42
2023/10/12 00:48:01;;;;;;;10.60;4.68;;;;;;;;;;6181486;23;20076;-42
2023/10/12 00:50:29;;;;;;;12.05;5.13;;;;;;;;;;6179479;23;20428;-41
2023/10/12 00:53:14;;;;;;;11.45;5.05;;;;;;;;;;6184717;23;20063;-41
2023/10/12 00:55:47;;;;;;;11.20;4.73;;;;;;;;;;6185085;23;20379;-42
2023/10/12 00:58:17;;;;;;;12.63;4.55;;;;;;;;;;6184593;23;20016;-41
2023/10/12 01:00:46;;;;;;;11.02;5.35;;;;;;;;;;6156738;23;20336;-41
2023/10/12 01:03:31;;;;;;;10.65;4.43;;;;;;;;;;6188340;23;20081;-42
2023/10/12 01:06:27;;;;;;;13.05;5.18;;;;;;;;;;6150914;23;20336;-41
2023/10/12 01:08:59;;;;;;;12.80;5.37;;;;;;;;;;6175102;23;20027;-42
2023/10/12 01:11:27;;;;;;;11.27;4.80;;;;;;;;;;6193131;23;20016;-41
2023/10/12 01:14:09;;;;;;;9.73;4.10;;;;;;;;;;6178580;23;20020;-42
2023/10/12 01:16:45;;;;;;;11.13;4.47;;;;;;;;;;6174571;23;20016;-42
2023/10/12 01:19:20;;;;;;;12.80;4.70;;;;;;;;;;6187361;23;20020;-42
2023/10/12 01:21:51;;;;;;;9.90;4.07;;;;;;;;;;6181710;23;20390;-41
2023/10/12 01:24:18;;;;;;;11.35;4.88;;;;;;;;;;6180993;23;20243;-41
2023/10/12 01:26:48;;;;;;;10.15;4.82;;;;;;;;;;6174461;23;20047;-41
2023/10/12 01:29:20;;;;;;;11.77;4.88;;;;;;;;;;6188755;23;20395;-41
2023/10/12 01:31:52;;;;;;;11.65;5.00;;;;;;;;;;6176734;23;20063;-42
2023/10/12 01:34:24;;;;;;;11.97;4.60;;;;;;;;;;6184811;23;20039;-46
2023/10/12 01:36:58;;;;;;;12.68;4.65;;;;;;;;;;6187708;23;20013;-41
2023/10/12 01:39:28;;;;;;;11.95;5.07;;;;;;;;;;6182748;23;20071;-41
2023/10/12 01:41:56;;;;;;;10.05;4.38;;;;;;;;;;6169739;23;20020;-41
2023/10/12 01:44:27;;;;;;;8.82;3.95;;;;;;;;;;6189833;23;20020;-41
2023/10/12 01:46:56;;;;;;;8.27;3.60;;;;;;;;;;6174859;23;20020;-43
2023/10/12 01:49:24;;;;;;;8.13;3.40;;;;;;;;;;6188294;23;20031;-41
2023/10/12 01:51:52;;;;;;;7.53;3.30;;;;;;;;;;6178838;23;20025;-41
2023/10/12 01:54:24;;;;;;;8.77;3.35;;;;;;;;;;6192124;23;20021;-42
2023/10/12 01:56:55;;;;;;;10.30;3.55;;;;;;;;;;6183931;23;20113;-42
2023/10/12 01:59:25;;;;;;;7.20;2.90;;;;;;;;;;6161545;23;20043;-42
2023/10/12 02:02:05;;;;;;;7.25;3.00;;;;;;;;;;6153693;23;20043;-41
2023/10/12 02:04:39;;;;;;;6.70;2.55;;;;;;;;;;6186353;23;20051;-41
2023/10/12 02:07:10;;;;;;;7.85;2.20;;;;;;;;;;6187191;23;20013;-41
2023/10/12 02:09:39;;;;;;;6.28;2.30;;;;;;;;;;6186415;23;20023;-42
2023/10/12 02:12:11;;;;;;;7.27;2.20;;;;;;;;;;6180227;23;20038;-41
2023/10/12 02:14:40;;;;;;;5.40;1.95;;;;;;;;;;6183541;23;20652;-41
2023/10/12 02:17:08;;;;;;;5.15;2.10;;;;;;;;;;6190922;23;20095;-41
2023/10/12 02:19:41;;;;;;;5.78;1.60;;;;;;;;;;6175730;23;20298;-41
2023/10/12 02:22:19;;;;;;;5.32;1.50;;;;;;;;;;6189512;23;20016;-41
2023/10/12 02:25:17;;;;;;;4.87;1.70;;;;;;;;;;6168245;23;20017;-41
2023/10/12 02:27:41;;;;;;;4.80;1.60;;;;;;;;;;6199772;23;20083;-44
2023/10/12 02:30:18;;;;;;;4.38;1.20;;;;;;;;;;6176439;23;20393;-41
2023/10/12 02:32:54;;;;;;;4.50;1.20;;;;;;;;;;6188591;23;20017;-41
2023/10/12 02:35:22;;;;;;;5.38;1.50;;;;;;;;;;6189107;23;20066;-41
2023/10/12 02:37:51;;;;;;;4.77;1.30;;;;;;;;;;6180440;23;20025;-42
2023/10/12 02:40:21;;;;;;;4.32;0.90;;;;;;;;;;6189535;23;20041;-41
2023/10/12 02:42:51;;;;;;;8.88;1.83;;;;;;;;;;6171786;23;20012;-42
2023/10/12 02:45:21;;;;;;;5.20;1.45;;;;;;;;;;6189266;23;20024;-43
2023/10/12 02:47:48;;;;;;;4.57;1.40;;;;;;;;;;6174507;23;20016;-42
2023/10/12 02:53:08;;;;;;;5.07;1.20;;;;;;;;;;6179784;23;20020;-41
2023/10/12 02:55:41;;;;;;;4.32;1.30;;;;;;;;;;6184668;23;20382;-41
2023/10/12 02:58:18;;;;;;;4.88;1.58;;;;;;;;;;6159395;23;20021;-42
2023/10/12 03:00:47;;;;;;;4.95;1.25;;;;;;;;;;6182789;23;20028;-41
2023/10/12 03:03:27;;;;;;;4.50;1.23;;;;;;;;;;6175814;23;20047;-41
2023/10/12 03:05:58;;;;;;;4.32;1.02;;;;;;;;;;6189674;23;20098;-41
2023/10/12 03:08:31;;;;;;;4.40;1.25;;;;;;;;;;6164752;23;20017;-41
2023/10/12 03:11:12;;;;;;;4.80;1.10;;;;;;;;;;6167183;23;20017;-44
2023/10/12 03:13:43;;;;;;;4.85;1.40;;;;;;;;;;6178703;23;20423;-43
2023/10/12 03:16:20;;;;;;;5.23;1.47;;;;;;;;;;6178146;23;20036;-41
2023/10/12 03:18:57;;;;;;;5.72;1.40;;;;;;;;;;6180133;23;20024;-44
2023/10/12 03:21:27;;;;;;;7.70;1.88;;;;;;;;;;6159526;23;20420;-43
2023/10/12 03:23:57;;;;;;;4.95;1.50;;;;;;;;;;6187176;23;20023;-41
2023/10/12 03:26:27;;;;;;;5.35;1.65;;;;;;;;;;6165746;23;20031;-41
2023/10/12 03:29:02;;;;;;;8.27;1.60;;;;;;;;;;6186643;23;20463;-42
2023/10/12 03:31:36;;;;;;;6.60;2.05;;;;;;;;;;6159045;23;20260;-41
2023/10/12 03:34:16;;;;;;;5.95;1.90;;;;;;;;;;6185147;23;20017;-41
2023/10/12 03:36:47;;;;;;;5.97;2.40;;;;;;;;;;6196076;23;20447;-43
2023/10/12 03:39:25;;;;;;;6.85;2.65;;;;;;;;;;6181151;23;20017;-42
2023/10/12 03:41:55;;;;;;;6.47;2.20;;;;;;;;;;6182587;23;20088;-42
2023/10/12 03:44:35;;;;;;;6.50;2.17;;;;;;;;;;6193717;23;20020;-42
2023/10/12 03:47:05;;;;;;;5.95;2.00;;;;;;;;;;6171417;23;20016;-41
2023/10/12 03:49:43;;;;;;;5.70;1.90;;;;;;;;;;6188177;23;20403;-42
2023/10/12 03:52:14;;;;;;;5.88;2.10;;;;;;;;;;6187674;23;20023;-42
2023/10/12 03:54:55;;;;;;;5.03;1.50;;;;;;;;;;6158678;23;20111;-41
2023/10/12 03:57:28;;;;;;;5.15;1.92;;;;;;;;;;6188351;23;20360;-42
2023/10/12 04:00:24;;;;;;;5.50;1.60;;;;;;;;;;6182183;23;20021;-43
2023/10/12 04:02:58;;;;;;;6.45;1.90;;;;;;;;;;6189327;23;20100;-41
2023/10/12 04:14:11;;;;;;;5.53;2.08;;;;;;;;;;6184511;23;20288;-41
2023/10/12 04:16:45;;;;;;;5.47;1.83;;;;;;;;;;6188974;23;20426;-41
2023/10/12 04:19:29;;;;;;;6.00;1.83;;;;;;;;;;6187716;23;20028;-41
2023/10/12 04:22:04;;;;;;;5.37;1.53;;;;;;;;;;6182447;23;20027;-44
2023/10/12 04:24:43;;;;;;;6.50;1.48;;;;;;;;;;6168038;23;20555;-41
2023/10/12 04:27:24;;;;;;;5.15;1.60;;;;;;;;;;6182588;23;20123;-41
2023/10/12 04:29:56;;;;;;;5.20;1.48;;;;;;;;;;6192913;23;20436;-41
2023/10/12 04:32:38;;;;;;;4.60;1.30;;;;;;;;;;6179404;23;20020;-41
2023/10/12 04:35:14;;;;;;;5.13;1.70;;;;;;;;;;6196147;23;20147;-41
2023/10/12 04:37:43;;;;;;;4.90;1.35;;;;;;;;;;6180794;23;20079;-42
2023/10/12 04:40:32;;;;;;;5.20;1.50;;;;;;;;;;6194832;23;20013;-41
2023/10/12 04:43:06;;;;;;;5.22;1.65;;;;;;;;;;6185720;23;20020;-43
2023/10/12 04:48:21;;;;;;;5.00;1.50;;;;;;;;;;6179189;23;20420;-41
2023/10/12 04:50:59;;;;;;;5.07;1.20;;;;;;;;;;6188058;23;20017;-42
2023/10/12 04:53:35;;;;;;;5.38;1.75;;;;;;;;;;6182457;23;20831;-42
2023/10/12 04:56:10;;;;;;;4.57;1.45;;;;;;;;;;6179516;23;20283;-41
2023/10/12 04:58:43;;;;;;;5.60;1.73;;;;;;;;;;6171771;23;20556;-42
2023/10/12 05:01:19;;;;;;;5.23;1.37;;;;;;;;;;6186290;23;20016;-41
2023/10/12 05:04:06;;;;;;;5.38;1.35;;;;;;;;;;6181544;23;20059;-41
2023/10/12 05:06:35;;;;;;;5.10;1.67;;;;;;;;;;6176639;23;20523;-41
2023/10/12 05:09:11;;;;;;;5.53;1.60;;;;;;;;;;6179780;23;20474;-41
2023/10/12 05:11:39;;;;;;;5.15;1.77;;;;;;;;;;6182551;23;20032;-41
2023/10/12 05:14:14;;;;;;;6.93;1.90;;;;;;;;;;6176328;23;20027;-41
2023/10/12 05:16:45;;;;;;;6.05;1.88;;;;;;;;;;6183560;23;20094;-41
2023/10/12 05:19:14;;;;;;;6.65;1.85;;;;;;;;;;6144380;23;20023;-41
2023/10/12 05:21:44;;;;;;;6.18;2.05;;;;;;;;;;6181537;23;20421;-41
2023/10/12 05:24:12;;;;;;;6.50;2.30;;;;;;;;;;6179881;23;20052;-42
2023/10/12 05:26:40;;;;;;;6.60;2.20;;;;;;;;;;6167775;23;20197;-46
2023/10/12 05:32:05;;;;;;;6.90;2.20;;;;;;;;;;6159362;23;20020;-41
2023/10/12 05:34:44;;;;;;;8.40;2.30;;;;;;;;;;6171886;23;20665;-42
2023/10/12 05:37:24;;;;;;;8.80;2.85;;;;;;;;;;6174985;23;20027;-42
2023/10/12 05:39:52;;;;;;;6.10;2.07;;;;;;;;;;6179719;23;20012;-42
2023/10/12 05:42:22;;;;;;;7.13;2.10;;;;;;;;;;6171497;23;20012;-41
2023/10/12 05:44:50;;;;;;;8.18;2.50;;;;;;;;;;6158232;23;20016;-42
2023/10/12 05:47:28;;;;;;;8.30;2.50;;;;;;;;;;6174822;23;20615;-42
2023/10/12 05:49:58;;;;;;;6.15;2.60;;;;;;;;;;6181756;23;20021;-42
2023/10/12 05:52:26;;;;;;;8.80;2.40;;;;;;;;;;6178527;23;20016;-42
2023/10/12 05:54:57;;;;;;;6.85;2.70;;;;;;;;;;6178046;23;20020;-42
2023/10/12 05:57:29;;;;;;;7.22;2.88;;;;;;;;;;6181057;23;20021;-41
2023/10/12 05:59:59;;;;;;;6.38;2.30;;;;;;;;;;6177116;23;20515;-42
2023/10/12 06:02:28;;;;;;;9.88;2.72;;;;;;;;;;6183797;23;20511;-45
2023/10/12 06:04:57;;;;;;;6.50;2.17;;;;;;;;;;6178498;23;20017;-42
2023/10/12 06:07:25;;;;;;;7.30;2.40;;;;;;;;;;6183666;23;20020;-43
2023/10/12 06:09:53;;;;;;;7.88;2.13;;;;;;;;;;6180858;23;20021;-42
2023/10/12 06:12:24;;;;;;;8.18;2.83;;;;;;;;;;6185601;23;20461;-43
2023/10/12 06:14:54;;;;;;;8.73;3.05;;;;;;;;;;6177077;23;20016;-42
2023/10/12 06:17:30;;;;;;;9.13;3.53;;;;;;;;;;6192556;23;20020;-42
2023/10/12 06:20:10;;;;;;;10.52;3.35;;;;;;;;;;6182363;23;20058;-42
2023/10/12 06:22:38;;;;;;;9.68;3.63;;;;;;;;;;6177163;23;20081;-42
2023/10/12 06:25:10;;;;;;;9.18;3.40;;;;;;;;;;6184542;23;20020;-42
2023/10/12 06:27:39;;;;;;;8.40;3.08;;;;;;;;;;6172081;23;20517;-42
2023/10/12 06:30:18;;;;;;;9.90;2.53;;;;;;;;;;6177665;23;20020;-41
2023/10/12 06:32:47;;;;;;;8.38;2.50;;;;;;;;;;6172696;23;20076;-42
2023/10/12 06:35:25;;;;;;;10.45;3.10;;;;;;;;;;6182617;23;20039;-41
2023/10/12 06:40:47;;;;;;;11.68;2.92;;;;;;;;;;6184306;23;20384;-41
2023/10/12 06:46:03;;;;;;;8.65;2.65;;;;;;;;;;6134253;23;20027;-41
2023/10/12 06:48:52;;;;;;;8.30;2.20;;;;;;;;;;6148721;23;20676;-40
2023/10/12 06:51:22;;;;;;;9.68;2.75;;;;;;;;;;6182729;23;20047;-42
2023/10/12 06:53:54;;;;;;;8.50;3.28;;;;;;;;;;6183030;23;20017;-42
2023/10/12 06:56:24;;;;;;;9.63;3.40;;;;;;;;;;6174779;23;20036;-41
2023/10/12 06:59:11;;;;;;;9.52;3.25;;;;;;;;;;6178757;23;20016;-41
2023/10/12 07:01:52;;;;;;;9.45;3.22;;;;;;;;;;6176141;23;20050;-41
2023/10/12 07:04:26;;;;;;;9.02;3.22;;;;;;;;;;6178980;23;20020;-43
2023/10/12 07:06:57;;;;;;;11.20;3.45;;;;;;;;;;6174048;23;20033;-42
2023/10/12 07:09:37;;;;;;;11.97;3.53;;;;;;;;;;6151621;23;20580;-41
2023/10/12 07:12:06;;;;;;;8.68;3.45;;;;;;;;;;6172432;23;20572;-44
2023/10/12 07:14:38;;;;;;;9.32;3.50;;;;;;;;;;6179656;23;20017;-41
2023/10/12 07:17:07;;;;;;;8.77;3.20;;;;;;;;;;6154910;23;20012;-42
2023/10/12 07:19:35;;;;;;;9.15;3.53;;;;;;;;;;6165716;23;20381;-41
2023/10/12 07:22:08;;;;;;;7.97;3.20;;;;;;;;;;6181038;23;20016;-41
2023/10/12 07:24:38;;;;;;;9.57;3.80;;;;;;;;;;6171911;23;20647;-41
2023/10/12 07:27:11;;;;;;;9.00;3.13;;;;;;;;;;6187720;23;20035;-43
2023/10/12 07:29:44;;;;;;;9.40;3.28;;;;;;;;;;6171747;23;20023;-41
2023/10/12 07:32:19;;;;;;;9.75;3.30;;;;;;;;;;6160957;23;20020;-41
2023/10/12 07:34:54;;;;;;;10.63;3.70;;;;;;;;;;6187526;23;20427;-41
2023/10/12 07:37:27;;;;;;;7.82;2.75;;;;;;;;;;6133959;23;20012;-43
2023/10/12 07:39:55;;;;;;;8.88;3.10;;;;;;;;;;6168113;23;20486;-41
2023/10/12 07:42:27;;;;;;;7.70;2.92;;;;;;;;;;6156573;23;20066;-43
2023/10/12 07:44:59;;;;;;;10.23;3.45;;;;;;;;;;6165212;23;20036;-41
2023/10/12 07:47:40;;;;;;;9.40;2.63;;;;;;;;;;6170921;23;20024;-43
2023/10/12 07:50:25;;;;;;;9.63;3.30;;;;;;;;;;6174763;23;20020;-41
2023/10/12 07:53:06;;;;;;;12.93;3.15;;;;;;;;;;6167001;23;20017;-41
2023/10/12 07:55:41;;;;;;;6.88;2.88;;;;;;;;;;6122237;23;20024;-41
2023/10/12 07:58:12;;;;;;;7.72;3.30;;;;;;;;;;6151051;23;20024;-41
2023/10/12 08:00:51;;;;;;;8.57;2.80;;;;;;;;;;6166684;23;20423;-44
2023/10/12 08:03:19;;;;;;;8.38;2.92;;;;;;;;;;6155111;23;20541;-42
2023/10/12 08:05:59;;;;;;;10.10;3.10;;;;;;;;;;6180706;23;20028;-41
2023/10/12 08:08:37;;;;;;;8.15;2.45;;;;;;;;;;6151648;23;20629;-41
2023/10/12 08:11:18;;;;;;;7.60;2.33;;;;;;;;;;6142613;23;20192;-42
2023/10/12 08:13:49;;;;;;;7.93;2.30;;;;;;;;;;6147036;23;20029;-42
2023/10/12 08:16:25;;;;;;;9.00;2.75;;;;;;;;;;6183178;23;20078;-41
2023/10/12 08:19:22;;;;;;;7.03;2.25;;;;;;;;;;6140532;23;20114;-41
2023/10/12 08:21:58;;;;;;;6.22;2.17;;;;;;;;;;6129736;23;20362;-41
2023/10/12 08:24:30;;;;;;;7.57;2.10;;;;;;;;;;6125714;23;20012;-41
2023/10/12 08:26:58;;;;;;;7.23;2.40;;;;;;;;;;6142932;23;20020;-41
2023/10/12 08:32:27;;;;;;;5.82;1.88;;;;;;;;;;6127864;23;20103;-42
2023/10/12 08:40:30;;;;;;;7.40;2.07;;;;;;;;;;6125366;23;20537;-41
2023/10/12 08:43:06;;;;;;;6.03;1.88;;;;;;;;;;6147642;23;20383;-41
2023/10/12 08:45:35;;;;;;;6.22;2.10;;;;;;;;;;6138216;23;20035;-41
2023/10/12 08:48:03;;;;;;;6.10;1.92;;;;;;;;;;6158797;23;20031;-43
2023/10/12 08:50:49;;;;;;;5.30;1.55;;;;;;;;;;6142416;23;20044;-43
2023/10/12 08:53:19;;;;;;;5.40;1.77;;;;;;;;;;6153138;23;20048;-42
2023/10/12 08:55:52;;;;;;;6.82;2.65;;;;;;;;;;6158929;23;20016;-41
2023/10/12 08:58:31;;;;;;;7.55;2.30;;;;;;;;;;6147572;23;20384;-41
2023/10/12 09:01:22;;;;;;;8.13;2.63;;;;;;;;;;6116035;23;20016;-41
2023/10/12 09:04:03;;;;;;;7.90;2.60;;;;;;;;;;6142402;23;20415;-42
2023/10/12 09:06:53;;;;;;;7.40;3.10;;;;;;;;;;6157689;23;20419;-42
2023/10/12 09:12:11;;;;;;;7.30;2.30;;;;;;;;;;6134051;23;20510;-41
2023/10/12 09:14:43;;;;;;;7.80;2.92;;;;;;;;;;6151706;23;20177;-41
2023/10/12 09:17:20;;;;;;;8.10;3.20;;;;;;;;;;6143217;23;20024;-41
2023/10/12 09:19:50;;;;;;;8.80;2.97;;;;;;;;;;6142032;23;20769;-42
2023/10/12 09:22:27;;;;;;;10.60;3.42;;;;;;;;;;6156535;23;20013;-42
2023/10/12 09:24:58;;;;;;;7.18;3.00;;;;;;;;;;6157747;23;20435;-41
2023/10/12 09:27:36;;;;;;;7.28;2.60;;;;;;;;;;6143617;23;20024;-42
2023/10/12 09:30:15;;;;;;;6.97;2.65;;;;;;;;;;6140663;23;20062;-41
2023/10/12 09:46:06;;;;;;;10.40;3.53;;;;;;;;;;5009648;27;1442226;-41
2023/10/12 09:48:38;;;;;;;9.15;3.72;;;;;;;;;;5027766;28;20636;-39
2023/10/12 09:51:10;;;;;;;8.27;3.42;;;;;;;;;;5030979;28;20040;-39
2023/10/12 09:53:39;;;;;;;7.73;3.23;;;;;;;;;;5036945;28;20335;-40
2023/10/12 09:56:15;;;;;;;8.82;3.72;;;;;;;;;;5024944;28;20038;-40
2023/10/12 09:58:51;;;;;;;9.52;4.00;;;;;;;;;;5039485;28;20036;-39
2023/10/12 10:01:45;;;;;;;9.27;4.00;;;;;;;;;;5023967;28;20514;-40
2023/10/12 10:17:36;;;;;;;12.03;4.00;;;;;;;;;;4349390;27;10002086;-41
2023/10/12 10:20:32;;;;;;;9.85;3.47;;;;;;;;;;5020921;28;20371;-40
2023/10/12 10:22:58;;;;;;;9.25;3.50;;;;;;;;;;4995932;28;20053;-39
2023/10/12 10:25:28;;;;;;;11.30;3.78;;;;;;;;;;5028406;28;20143;-43
2023/10/12 10:27:56;;;;;;;10.00;3.60;;;;;;;;;;5022998;28;20053;-41
2023/10/12 10:30:28;;;;;;;9.33;3.50;;;;;;;;;;5017995;28;20044;-42
2023/10/12 10:33:12;;;;;;;9.02;3.70;;;;;;;;;;5023077;28;20465;-41
2023/10/12 10:35:57;;;;;;;9.45;3.92;;;;;;;;;;5009163;28;20044;-40
2023/10/12 10:38:32;;;;;;;8.65;3.72;;;;;;;;;;5038315;28;20522;-39
2023/10/12 10:41:08;;;;;;;9.50;4.40;;;;;;;;;;5043307;28;20048;-40
2023/10/12 10:43:38;;;;;;;9.93;4.67;;;;;;;;;;5020147;28;20033;-39
2023/10/12 10:46:09;;;;;;;8.93;4.47;;;;;;;;;;5045529;28;20055;-40
2023/10/12 10:48:49;;;;;;;9.20;4.28;;;;;;;;;;5032518;28;20067;-41
2023/10/12 10:51:42;;;;;;;10.88;4.82;;;;;;;;;;5021398;28;20044;-40
2023/10/12 10:54:18;;;;;;;10.35;4.05;;;;;;;;;;5027736;28;20044;-39
2023/10/12 10:56:49;;;;;;;11.07;4.53;;;;;;;;;;5033657;28;20037;-39
2023/10/12 10:59:18;;;;;;;10.38;4.63;;;;;;;;;;5022709;28;20052;-39
2023/10/12 11:01:49;;;;;;;10.35;4.43;;;;;;;;;;5042813;28;20109;-42
2023/10/12 11:04:36;;;;;;;11.32;5.07;;;;;;;;;;5018711;28;20127;-42
2023/10/12 11:07:06;;;;;;;10.27;4.90;;;;;;;;;;5016568;28;20714;-39
2023/10/12 11:10:03;;;;;;;11.83;5.90;;;;;;;;;;5026398;28;20968;-41
2023/10/12 11:12:36;;;;;;;11.00;5.88;;;;;;;;;;5030209;28;20036;-43
2023/10/12 11:15:08;;;;;;;14.50;6.38;;;;;;;;;;5029360;28;23152;-41
2023/10/12 11:17:40;;;;;;;11.60;5.57;;;;;;;;;;5031021;28;20055;-42
2023/10/12 11:20:28;;;;;;;12.90;6.32;;;;;;;;;;5014296;28;20033;-42
2023/10/12 11:22:56;;;;;;;11.10;5.60;;;;;;;;;;5002191;28;20045;-39
2023/10/12 11:25:28;;;;;;;12.48;6.53;;;;;;;;;;5027460;28;20216;-39
2023/10/12 11:27:56;;;;;;;12.82;6.13;;;;;;;;;;5004969;28;20041;-39
2023/10/12 11:30:29;;;;;;;14.18;6.47;;;;;;;;;;5029178;28;20618;-39
2023/10/12 11:32:58;;;;;;;12.10;6.47;;;;;;;;;;5011341;28;20047;-39
2023/10/12 11:35:34;;;;;;;11.70;6.20;;;;;;;;;;5014652;28;20040;-40
2023/10/12 11:38:02;;;;;;;13.68;6.60;;;;;;;;;;5011367;28;20052;-40
2023/10/12 11:40:31;;;;;;;14.20;6.43;;;;;;;;;;5021279;28;20044;-40
2023/10/12 11:43:03;;;;;;;12.70;6.50;;;;;;;;;;5010951;28;20040;-42
2023/10/12 11:45:33;;;;;;;14.15;7.35;;;;;;;;;;5025595;28;20039;-40
2023/10/12 11:48:17;;;;;;;12.53;6.70;;;;;;;;;;5006718;28;20116;-41
2023/10/12 11:50:48;;;;;;;15.75;6.40;;;;;;;;;;5021839;28;20041;-41
2023/10/12 11:53:17;;;;;;;15.00;6.78;;;;;;;;;;5014926;28;20491;-40
2023/10/12 11:55:47;;;;;;;15.02;7.18;;;;;;;;;;5030447;28;20123;-41
2023/10/12 11:58:19;;;;;;;15.63;7.00;;;;;;;;;;5005761;28;20389;-41
2023/10/12 12:00:50;;;;;;;14.77;7.13;;;;;;;;;;5014353;28;20126;-40
2023/10/12 12:03:18;;;;;;;13.60;6.20;;;;;;;;;;5008821;28;20529;-40
2023/10/12 12:05:50;;;;;;;15.52;7.13;;;;;;;;;;5015631;28;20041;-41
2023/10/12 12:08:19;;;;;;;11.75;5.93;;;;;;;;;;5022371;28;20068;-41
2023/10/12 12:10:54;;;;;;;12.15;6.15;;;;;;;;;;5019740;28;20070;-40
2023/10/12 12:13:25;;;;;;;14.00;6.77;;;;;;;;;;5013483;28;20040;-41
2023/10/12 12:15:55;;;;;;;13.10;6.75;;;;;;;;;;4986288;28;20068;-41
2023/10/12 12:18:23;;;;;;;13.90;6.82;;;;;;;;;;5022389;28;20049;-41
2023/10/12 12:21:13;;;;;;;13.77;7.15;;;;;;;;;;5026401;28;20488;-40
2023/10/12 12:23:41;;;;;;;15.93;6.82;;;;;;;;;;5026291;28;20044;-40
2023/10/12 12:26:09;;;;;;;12.40;6.37;;;;;;;;;;4663588;28;10000259;-40
2023/10/12 12:28:44;;;;;;;13.55;5.88;;;;;;;;;;5006557;28;20041;-40
2023/10/12 12:31:15;;;;;;;18.38;7.70;;;;;;;;;;5001207;28;20045;-41
2023/10/12 12:33:44;;;;;;;15.37;7.17;;;;;;;;;;5014971;28;20119;-40
2023/10/12 12:36:22;;;;;;;14.15;7.50;;;;;;;;;;4999565;28;20690;-40
2023/10/12 12:38:52;;;;;;;13.50;7.05;;;;;;;;;;5016696;28;20037;-40
2023/10/12 12:41:23;;;;;;;13.18;6.75;;;;;;;;;;5006442;28;20491;-42
2023/10/12 12:43:52;;;;;;;12.00;6.68;;;;;;;;;;5004113;28;20559;-41
2023/10/12 12:46:20;;;;;;;12.70;7.23;;;;;;;;;;4999823;28;20652;-40
2023/10/12 12:48:50;;;;;;;14.38;6.80;;;;;;;;;;5010322;28;20654;-40
2023/10/12 12:51:19;;;;;;;14.15;7.13;;;;;;;;;;5007102;28;20187;-40
2023/10/12 12:53:48;;;;;;;15.63;7.80;;;;;;;;;;5007192;28;20037;-40
2023/10/12 12:56:16;;;;;;;15.60;8.15;;;;;;;;;;5005674;28;20045;-40
2023/10/12 12:58:57;;;;;;;15.40;7.60;;;;;;;;;;5014483;28;20112;-41
2023/10/12 13:01:28;;;;;;;15.05;7.50;;;;;;;;;;5011149;28;20415;-40
2023/10/12 13:03:56;;;;;;;19.73;8.43;;;;;;;;;;4994036;28;20694;-40
2023/10/12 13:06:25;;;;;;;16.92;7.85;;;;;;;;;;5000812;28;20052;-41
2023/10/12 13:08:53;;;;;;;14.52;7.80;;;;;;;;;;4998129;28;20776;-42
2023/10/12 13:11:22;;;;;;;17.17;8.10;;;;;;;;;;5024411;28;20880;-40
2023/10/12 13:13:50;;;;;;;17.05;7.68;;;;;;;;;;4657670;28;10000320;-40
2023/10/12 13:16:17;;;;;;;16.02;8.13;;;;;;;;;;5000934;28;20057;-41
2023/10/12 13:18:47;;;;;;;19.13;8.63;;;;;;;;;;5005171;28;20055;-40
2023/10/12 13:21:16;;;;;;;14.50;7.03;;;;;;;;;;5004278;28;20503;-40
2023/10/12 13:23:46;;;;;;;18.17;7.30;;;;;;;;;;5009279;28;20522;-40
2023/10/12 13:26:19;;;;;;;15.35;7.32;;;;;;;;;;4993400;28;20052;-41
2023/10/12 13:28:47;;;;;;;14.75;7.35;;;;;;;;;;5007502;28;20048;-41
2023/10/12 13:31:14;;;;;;;14.93;7.82;;;;;;;;;;4993933;28;21210;-43
2023/10/12 13:33:42;;;;;;;15.48;7.43;;;;;;;;;;5005282;28;20041;-40
2023/10/12 13:36:10;;;;;;;13.83;6.53;;;;;;;;;;4985727;28;20102;-40
2023/10/12 13:38:39;;;;;;;16.70;8.10;;;;;;;;;;5005575;28;20047;-41
2023/10/12 13:41:10;;;;;;;16.88;8.07;;;;;;;;;;4997014;28;20499;-40
2023/10/12 13:43:40;;;;;;;20.05;8.88;;;;;;;;;;5001586;28;20354;-40
2023/10/12 13:46:13;;;;;;;20.40;9.48;;;;;;;;;;5000679;28;20055;-40
2023/10/12 13:48:41;;;;;;;20.87;8.87;;;;;;;;;;4983786;28;21598;-41
2023/10/12 13:51:12;;;;;;;17.35;8.27;;;;;;;;;;5007109;28;20047;-43
2023/10/12 13:53:41;;;;;;;16.23;8.40;;;;;;;;;;5009024;28;20087;-43
2023/10/12 13:56:11;;;;;;;15.10;7.80;;;;;;;;;;5002610;28;20534;-43
2023/10/12 13:58:41;;;;;;;14.40;7.15;;;;;;;;;;5021594;28;20048;-42
2023/10/12 14:01:14;;;;;;;14.73;7.43;;;;;;;;;;4979933;28;20890;-40
2023/10/12 14:03:45;;;;;;;14.10;7.32;;;;;;;;;;5012257;28;20040;-42
2023/10/12 14:06:19;;;;;;;16.05;7.50;;;;;;;;;;5010902;28;20067;-42
2023/10/12 14:08:47;;;;;;;12.80;6.45;;;;;;;;;;5006021;28;20501;-41
2023/10/12 14:11:17;;;;;;;17.75;8.30;;;;;;;;;;5007404;28;20127;-40
2023/10/12 14:13:45;;;;;;;16.23;7.37;;;;;;;;;;5015916;28;20047;-40
2023/10/12 14:16:13;;;;;;;15.15;6.53;;;;;;;;;;5006914;28;20065;-42
2023/10/12 14:18:41;;;;;;;15.07;6.65;;;;;;;;;;5011310;28;20085;-40
2023/10/12 14:21:11;;;;;;;13.43;6.63;;;;;;;;;;4992301;28;20064;-42
2023/10/12 14:23:40;;;;;;;13.30;6.82;;;;;;;;;;5003998;28;20055;-41
2023/10/12 14:26:10;;;;;;;19.13;6.80;;;;;;;;;;4961845;28;20584;-42
2023/10/12 14:28:41;;;;;;;15.20;6.75;;;;;;;;;;4992901;28;20052;-43
2023/10/12 14:31:09;;;;;;;14.00;6.38;;;;;;;;;;5003567;28;21768;-41
2023/10/12 14:33:37;;;;;;;12.50;6.03;;;;;;;;;;5011398;28;20155;-42
2023/10/12 14:36:09;;;;;;;13.93;7.47;;;;;;;;;;4982508;28;20051;-41
2023/10/12 14:38:37;;;;;;;16.83;8.10;;;;;;;;;;5006990;28;20527;-41
2023/10/12 14:41:09;;;;;;;14.48;6.70;;;;;;;;;;5005365;28;20331;-41
2023/10/12 14:43:39;;;;;;;14.38;7.50;;;;;;;;;;4999412;28;20590;-41
2023/10/12 14:46:10;;;;;;;13.77;7.43;;;;;;;;;;5009494;28;20132;-43
2023/10/12 14:48:38;;;;;;;14.93;7.80;;;;;;;;;;4998849;28;20044;-40
2023/10/12 14:51:08;;;;;;;15.33;7.37;;;;;;;;;;4993960;28;20431;-43
2023/10/12 14:53:36;;;;;;;14.13;7.25;;;;;;;;;;5010084;28;20033;-40
2023/10/12 14:56:04;;;;;;;13.85;7.25;;;;;;;;;;5001989;28;20051;-42
2023/10/12 14:58:31;;;;;;;15.65;7.47;;;;;;;;;;5004707;28;20171;-40
2023/10/12 15:01:01;;;;;;;14.02;7.18;;;;;;;;;;5003201;28;20435;-40
2023/10/12 15:03:34;;;;;;;14.93;7.57;;;;;;;;;;4996247;28;20678;-42
2023/10/12 15:06:03;;;;;;;15.27;7.70;;;;;;;;;;5008479;28;20589;-40
2023/10/12 15:08:31;;;;;;;17.77;8.27;;;;;;;;;;5003650;28;20041;-40
2023/10/12 15:10:59;;;;;;;16.00;8.00;;;;;;;;;;4971804;28;20102;-40
2023/10/12 15:13:27;;;;;;;16.63;8.10;;;;;;;;;;4659863;28;10000287;-41
2023/10/12 15:15:58;;;;;;;18.80;8.60;;;;;;;;;;5009996;28;20294;-40
2023/10/12 15:18:27;;;;;;;18.13;8.23;;;;;;;;;;4988228;28;20996;-40
2023/10/12 15:20:55;;;;;;;17.02;7.88;;;;;;;;;;5018208;28;20105;-41
2023/10/12 15:23:40;;;;;;;19.92;8.27;;;;;;;;;;5002069;28;20051;-41
2023/10/12 15:26:07;;;;;;;18.40;8.25;;;;;;;;;;5014271;28;20049;-40
2023/10/12 15:28:36;;;;;;;21.33;9.23;;;;;;;;;;5011824;28;20044;-40
2023/10/12 15:31:06;;;;;;;17.65;8.30;;;;;;;;;;5008123;28;20047;-42
2023/10/12 15:33:37;;;;;;;15.48;7.80;;;;;;;;;;5015876;28;20048;-40
2023/10/12 15:36:07;;;;;;;15.07;6.85;;;;;;;;;;5005186;28;20343;-40
2023/10/12 15:38:34;;;;;;;16.08;7.65;;;;;;;;;;5017385;28;20051;-40
2023/10/12 15:41:02;;;;;;;17.10;8.00;;;;;;;;;;5011260;28;20123;-40
2023/10/12 15:43:30;;;;;;;16.52;6.80;;;;;;;;;;5019833;28;20410;-40
2023/10/12 15:45:58;;;;;;;15.30;6.75;;;;;;;;;;5010986;28;20039;-40
2023/10/12 15:48:27;;;;;;;14.57;6.45;;;;;;;;;;5018856;28;20177;-43
2023/10/12 15:50:58;;;;;;;16.70;7.78;;;;;;;;;;5017330;28;20049;-42
2023/10/12 15:53:26;;;;;;;16.73;7.67;;;;;;;;;;5011934;28;20093;-40
2023/10/12 15:55:53;;;;;;;14.00;7.32;;;;;;;;;;5014677;28;20149;-41
2023/10/12 15:58:21;;;;;;;17.58;7.22;;;;;;;;;;5011151;28;20037;-41
2023/10/12 16:00:54;;;;;;;15.85;6.68;;;;;;;;;;5008363;28;20044;-40
2023/10/12 16:03:25;;;;;;;15.50;6.93;;;;;;;;;;5029794;28;20068;-40
2023/10/12 16:05:57;;;;;;;16.27;6.83;;;;;;;;;;5034091;28;20071;-41
2023/10/12 16:08:26;;;;;;;15.18;6.72;;;;;;;;;;5024847;28;20056;-41
2023/10/12 16:10:54;;;;;;;14.52;6.63;;;;;;;;;;5016226;28;20536;-40